createdAt,value
2016-06-10T00:00:43.552Z,1008.68
2016-06-10T00:01:43.539Z,1008.71
2016-06-10T00:02:43.511Z,1008.68
2016-06-10T00:03:43.483Z,1008.64
2016-06-10T00:04:43.470Z,1008.61
2016-06-10T00:05:43.443Z,1008.59
2016-06-10T00:06:43.413Z,1008.57
2016-06-10T00:07:43.386Z,1008.57
2016-06-10T00:08:43.374Z,1008.6
2016-06-10T00:09:43.361Z,1008.58
2016-06-10T00:10:43.317Z,1008.59
2016-06-10T00:11:43.304Z,1008.56
2016-06-10T00:12:43.276Z,1008.52
2016-06-10T00:13:43.248Z,1008.54
2016-06-10T00:14:43.235Z,1008.53
2016-06-10T00:15:43.207Z,1008.51
2016-06-10T00:16:43.179Z,1008.53
2016-06-10T00:17:44.402Z,1008.51
2016-06-10T00:18:44.764Z,1008.47
2016-06-10T00:19:44.078Z,1008.49
2016-06-10T00:20:43.081Z,1008.54
2016-06-10T00:21:43.070Z,1008.5
2016-06-10T00:22:44.495Z,1008.5
2016-06-10T00:23:44.403Z,1008.55
2016-06-10T00:24:44.704Z,1008.5
2016-06-10T00:25:44.066Z,1008.54
2016-06-10T00:26:44.132Z,1008.51
2016-06-10T00:27:44.291Z,1008.47
2016-06-10T00:28:44.169Z,1008.46
2016-06-10T00:29:44.156Z,1008.46
2016-06-10T00:30:44.159Z,1008.42
2016-06-10T00:31:44.209Z,1008.46
2016-06-10T00:32:44.228Z,1008.44
2016-06-10T00:33:44.184Z,1008.44
2016-06-10T00:34:44.063Z,1008.43
2016-06-10T00:35:44.191Z,1008.42
2016-06-10T00:36:43.725Z,1008.41
2016-06-10T00:37:43.994Z,1008.39
2016-06-10T00:38:44.059Z,1008.39
2016-06-10T00:39:43.937Z,1008.42
2016-06-10T00:40:43.487Z,1008.39
2016-06-10T00:41:42.600Z,1008.33
2016-06-10T00:42:42.571Z,1008.35
2016-06-10T00:43:42.544Z,1008.37
2016-06-10T00:44:42.515Z,1008.33
2016-06-10T00:45:42.502Z,1008.35
2016-06-10T00:46:42.475Z,1008.31
2016-06-10T00:47:42.447Z,1008.31
2016-06-10T00:48:42.434Z,1008.34
2016-06-10T00:49:42.405Z,1008.29
2016-06-10T00:50:42.378Z,1008.29
2016-06-10T00:51:42.349Z,1008.3
2016-06-10T00:52:42.337Z,1008.3
2016-06-10T00:53:42.308Z,1008.3
2016-06-10T00:54:42.280Z,1008.3
2016-06-10T00:55:42.268Z,1008.32
2016-06-10T00:56:42.239Z,1008.31
2016-06-10T00:57:42.211Z,1008.33
2016-06-10T00:58:42.183Z,1008.33
2016-06-10T00:59:42.156Z,1008.32
2016-06-10T01:00:42.143Z,1008.36
2016-06-10T01:01:42.115Z,1008.39
2016-06-10T01:02:42.086Z,1008.36
2016-06-10T01:03:42.074Z,1008.34
2016-06-10T01:04:42.046Z,1008.35
2016-06-10T01:05:42.017Z,1008.32
2016-06-10T01:06:41.989Z,1008.34
2016-06-10T01:07:41.976Z,1008.31
2016-06-10T01:08:41.948Z,1008.29
2016-06-10T01:09:41.920Z,1008.32
2016-06-10T01:10:41.893Z,1008.26
2016-06-10T01:11:41.880Z,1008.26
2016-06-10T01:12:41.852Z,1008.27
2016-06-10T01:13:41.824Z,1008.26
2016-06-10T01:14:41.811Z,1008.29
2016-06-10T01:15:41.783Z,1008.28
2016-06-10T01:16:41.754Z,1008.27
2016-06-10T01:17:41.726Z,1008.24
2016-06-10T01:18:41.729Z,1008.21
2016-06-10T01:19:41.685Z,1008.17
2016-06-10T01:20:41.658Z,1008.16
2016-06-10T01:21:41.629Z,1008.12
2016-06-10T01:22:41.616Z,1008.1
2016-06-10T01:23:41.588Z,1008.14
2016-06-10T01:24:41.561Z,1008.11
2016-06-10T01:25:41.656Z,1008.13
2016-06-10T01:26:41.520Z,1008.13
2016-06-10T01:27:41.491Z,1008.12
2016-06-10T01:28:41.463Z,1008.08
2016-06-10T01:29:41.434Z,1008.08
2016-06-10T01:30:41.422Z,1008.05
2016-06-10T01:31:41.393Z,1008.05
2016-06-10T01:32:41.366Z,1008.01
2016-06-10T01:33:41.338Z,1007.98
2016-06-10T01:34:41.325Z,1007.98
2016-06-10T01:35:41.297Z,1007.94
2016-06-10T01:36:41.270Z,1007.95
2016-06-10T01:37:41.240Z,1007.96
2016-06-10T01:38:41.228Z,1007.94
2016-06-10T01:39:41.200Z,1007.94
2016-06-10T01:40:41.172Z,1007.97
2016-06-10T01:41:41.143Z,1007.96
2016-06-10T01:42:41.116Z,1007.98
2016-06-10T01:43:41.103Z,1007.94
2016-06-10T01:44:41.075Z,1007.99
2016-06-10T01:45:41.047Z,1007.94
2016-06-10T01:46:41.034Z,1007.97
2016-06-10T01:47:41.006Z,1007.93
2016-06-10T01:48:40.977Z,1007.95
2016-06-10T01:49:40.949Z,1007.93
2016-06-10T01:50:40.921Z,1007.96
2016-06-10T01:51:40.909Z,1008
2016-06-10T01:52:40.881Z,1007.96
2016-06-10T01:53:40.852Z,1008
2016-06-10T01:54:40.856Z,1008.03
2016-06-10T01:55:41.343Z,1008.01
2016-06-10T01:56:40.783Z,1008.04
2016-06-10T01:57:40.755Z,1008.04
2016-06-10T01:58:40.743Z,1008.02
2016-06-10T01:59:40.715Z,1007.97
2016-06-10T02:00:40.686Z,1008.01
2016-06-10T02:01:40.658Z,1007.98
2016-06-10T02:02:40.630Z,1007.99
2016-06-10T02:03:40.617Z,1008
2016-06-10T02:04:40.589Z,1008.01
2016-06-10T02:05:40.562Z,1008
2016-06-10T02:06:40.532Z,1008.02
2016-06-10T02:07:40.521Z,1008.02
2016-06-10T02:08:40.493Z,1008.06
2016-06-10T02:09:40.463Z,1008.01
2016-06-10T02:10:41.124Z,1008.02
2016-06-10T02:11:40.422Z,1008.06
2016-06-10T02:12:40.395Z,1008.05
2016-06-10T02:13:40.367Z,1008.05
2016-06-10T02:14:40.339Z,1008
2016-06-10T02:15:40.326Z,1007.99
2016-06-10T02:16:40.298Z,1007.97
2016-06-10T02:17:40.271Z,1007.96
2016-06-10T02:18:40.241Z,1007.99
2016-06-10T02:19:40.229Z,1007.99
2016-06-10T02:20:40.200Z,1007.97
2016-06-10T02:21:40.172Z,1007.92
2016-06-10T02:22:40.145Z,1007.92
2016-06-10T02:23:40.131Z,1007.89
2016-06-10T02:24:40.104Z,1007.89
2016-06-10T02:25:40.076Z,1007.89
2016-06-10T02:26:40.048Z,1007.95
2016-06-10T02:27:40.035Z,1007.96
2016-06-10T02:28:40.007Z,1007.97
2016-06-10T02:29:39.978Z,1007.98
2016-06-10T02:30:39.967Z,1007.97
2016-06-10T02:31:39.922Z,1007.97
2016-06-10T02:32:39.909Z,1007.94
2016-06-10T02:33:39.882Z,1007.93
2016-06-10T02:34:39.854Z,1007.93
2016-06-10T02:35:39.825Z,1007.94
2016-06-10T02:36:39.812Z,1007.94
2016-06-10T02:37:39.816Z,1007.96
2016-06-10T02:38:39.810Z,1007.9
2016-06-10T02:39:39.819Z,1007.92
2016-06-10T02:40:39.845Z,1007.87
2016-06-10T02:41:39.854Z,1007.85
2016-06-10T02:42:39.854Z,1007.83
2016-06-10T02:43:39.854Z,1007.8
2016-06-10T02:44:39.840Z,1007.79
2016-06-10T02:45:39.826Z,1007.8
2016-06-10T02:46:39.812Z,1007.78
2016-06-10T02:47:39.792Z,1007.79
2016-06-10T02:48:39.785Z,1007.73
2016-06-10T02:49:39.763Z,1007.73
2016-06-10T02:50:39.738Z,1007.71
2016-06-10T02:51:39.715Z,1007.75
2016-06-10T02:52:39.705Z,1007.72
2016-06-10T02:53:39.679Z,1007.72
2016-06-10T02:54:39.653Z,1007.7
2016-06-10T02:55:39.627Z,1007.66
2016-06-10T02:56:39.616Z,1007.65
2016-06-10T02:57:39.590Z,1007.6
2016-06-10T02:58:39.562Z,1007.61
2016-06-10T02:59:39.534Z,1007.55
2016-06-10T03:00:39.523Z,1007.58
2016-06-10T03:01:39.511Z,1007.55
2016-06-10T03:02:39.468Z,1007.58
2016-06-10T03:03:39.439Z,1007.6
2016-06-10T03:04:39.426Z,1007.57
2016-06-10T03:05:39.399Z,1007.53
2016-06-10T03:06:39.370Z,1007.55
2016-06-10T03:07:39.343Z,1007.53
2016-06-10T03:08:39.330Z,1007.54
2016-06-10T03:09:39.302Z,1007.56
2016-06-10T03:10:39.289Z,1007.54
2016-06-10T03:11:39.245Z,1007.52
2016-06-10T03:12:39.217Z,1007.48
2016-06-10T03:13:39.204Z,1007.5
2016-06-10T03:14:39.177Z,1007.48
2016-06-10T03:15:39.148Z,1007.49
2016-06-10T03:16:39.135Z,1007.48
2016-06-10T03:17:39.108Z,1007.51
2016-06-10T03:18:39.079Z,1007.48
2016-06-10T03:19:39.050Z,1007.5
2016-06-10T03:20:39.022Z,1007.49
2016-06-10T03:21:39.011Z,1007.48
2016-06-10T03:22:38.982Z,1007.47
2016-06-10T03:23:38.953Z,1007.49
2016-06-10T03:24:38.926Z,1007.47
2016-06-10T03:25:38.913Z,1007.5
2016-06-10T03:26:38.885Z,1007.5
2016-06-10T03:27:38.857Z,1007.47
2016-06-10T03:28:38.828Z,1007.47
2016-06-10T03:29:38.816Z,1007.47
2016-06-10T03:30:38.789Z,1007.44
2016-06-10T03:31:38.759Z,1007.46
2016-06-10T03:32:38.731Z,1007.47
2016-06-10T03:33:38.719Z,1007.45
2016-06-10T03:34:38.690Z,1007.43
2016-06-10T03:35:38.662Z,1007.43
2016-06-10T03:36:38.635Z,1007.48
2016-06-10T03:37:38.606Z,1007.48
2016-06-10T03:38:38.594Z,1007.48
2016-06-10T03:39:38.566Z,1007.52
2016-06-10T03:40:39.147Z,1007.55
2016-06-10T03:41:38.525Z,1007.54
2016-06-10T03:42:38.497Z,1007.56
2016-06-10T03:43:38.468Z,1007.52
2016-06-10T03:44:38.441Z,1007.52
2016-06-10T03:45:38.413Z,1007.5
2016-06-10T03:46:38.383Z,1007.5
2016-06-10T03:47:38.372Z,1007.49
2016-06-10T03:48:38.344Z,1007.45
2016-06-10T03:49:38.315Z,1007.48
2016-06-10T03:50:38.303Z,1007.48
2016-06-10T03:51:38.274Z,1007.47
2016-06-10T03:52:38.246Z,1007.54
2016-06-10T03:53:38.218Z,1007.54
2016-06-10T03:54:38.205Z,1007.53
2016-06-10T03:55:38.177Z,1007.53
2016-06-10T03:56:38.150Z,1007.52
2016-06-10T03:57:38.122Z,1007.47
2016-06-10T03:58:38.093Z,1007.49
2016-06-10T03:59:38.080Z,1007.49
2016-06-10T04:00:38.052Z,1007.51
2016-06-10T04:01:38.040Z,1007.5
2016-06-10T04:02:37.995Z,1007.51
2016-06-10T04:03:37.968Z,1007.53
2016-06-10T04:04:37.955Z,1007.54
2016-06-10T04:05:37.927Z,1007.55
2016-06-10T04:06:37.899Z,1007.61
2016-06-10T04:07:37.870Z,1007.61
2016-06-10T04:08:37.858Z,1007.62
2016-06-10T04:09:37.829Z,1007.59
2016-06-10T04:10:37.817Z,1007.59
2016-06-10T04:11:37.789Z,1007.57
2016-06-10T04:12:37.761Z,1007.59
2016-06-10T04:13:37.733Z,1007.59
2016-06-10T04:14:37.704Z,1007.62
2016-06-10T04:15:37.692Z,1007.6
2016-06-10T04:16:37.663Z,1007.58
2016-06-10T04:17:37.636Z,1007.59
2016-06-10T04:18:37.607Z,1007.58
2016-06-10T04:19:37.595Z,1007.58
2016-06-10T04:20:37.567Z,1007.6
2016-06-10T04:21:37.539Z,1007.55
2016-06-10T04:22:37.526Z,1007.55
2016-06-10T04:23:37.498Z,1007.58
2016-06-10T04:24:37.469Z,1007.53
2016-06-10T04:25:37.442Z,1007.53
2016-06-10T04:26:37.414Z,1007.54
2016-06-10T04:27:37.401Z,1007.55
2016-06-10T04:28:37.373Z,1007.56
2016-06-10T04:29:37.345Z,1007.57
2016-06-10T04:30:37.332Z,1007.55
2016-06-10T04:31:37.304Z,1007.57
2016-06-10T04:32:37.275Z,1007.53
2016-06-10T04:33:37.247Z,1007.5
2016-06-10T04:34:37.219Z,1007.54
2016-06-10T04:35:37.222Z,1007.54
2016-06-10T04:36:37.178Z,1007.57
2016-06-10T04:37:37.150Z,1007.62
2016-06-10T04:38:37.122Z,1007.64
2016-06-10T04:39:37.109Z,1007.66
2016-06-10T04:40:37.081Z,1007.63
2016-06-10T04:41:37.053Z,1007.58
2016-06-10T04:42:37.040Z,1007.61
2016-06-10T04:43:37.013Z,1007.57
2016-06-10T04:44:36.984Z,1007.56
2016-06-10T04:45:36.972Z,1007.58
2016-06-10T04:46:36.943Z,1007.56
2016-06-10T04:47:36.915Z,1007.56
2016-06-10T04:48:36.903Z,1007.56
2016-06-10T04:49:36.874Z,1007.52
2016-06-10T04:50:36.846Z,1007.53
2016-06-10T04:51:36.818Z,1007.56
2016-06-10T04:52:36.791Z,1007.61
2016-06-10T04:53:36.777Z,1007.62
2016-06-10T04:54:36.750Z,1007.58
2016-06-10T04:55:36.955Z,1007.59
2016-06-10T04:56:36.709Z,1007.59
2016-06-10T04:57:36.681Z,1007.61
2016-06-10T04:58:36.668Z,1007.66
2016-06-10T04:59:36.640Z,1007.63
2016-06-10T05:00:36.611Z,1007.61
2016-06-10T05:01:36.583Z,1007.61
2016-06-10T05:02:36.572Z,1007.63
2016-06-10T05:03:36.542Z,1007.61
2016-06-10T05:04:36.530Z,1007.61
2016-06-10T05:05:36.501Z,1007.65
2016-06-10T05:06:36.474Z,1007.62
2016-06-10T05:07:36.461Z,1007.63
2016-06-10T05:08:36.432Z,1007.6
2016-06-10T05:09:36.421Z,1007.59
2016-06-10T05:10:36.392Z,1007.62
2016-06-10T05:11:36.379Z,1007.65
2016-06-10T05:12:36.352Z,1007.62
2016-06-10T05:13:36.323Z,1007.59
2016-06-10T05:14:36.295Z,1007.6
2016-06-10T05:15:36.282Z,1007.57
2016-06-10T05:16:36.254Z,1007.63
2016-06-10T05:17:36.242Z,1007.64
2016-06-10T05:18:36.213Z,1007.69
2016-06-10T05:19:36.186Z,1007.68
2016-06-10T05:20:36.173Z,1007.69
2016-06-10T05:21:36.144Z,1007.65
2016-06-10T05:22:36.133Z,1007.61
2016-06-10T05:23:36.104Z,1007.58
2016-06-10T05:24:36.076Z,1007.6
2016-06-10T05:25:36.063Z,1007.56
2016-06-10T05:26:36.035Z,1007.57
2016-06-10T05:27:36.023Z,1007.57
2016-06-10T05:28:35.994Z,1007.6
2016-06-10T05:29:35.982Z,1007.58
2016-06-10T05:30:35.953Z,1007.59
2016-06-10T05:31:35.941Z,1007.59
2016-06-10T05:32:35.913Z,1007.59
2016-06-10T05:33:35.900Z,1007.63
2016-06-10T05:34:35.873Z,1007.63
2016-06-10T05:35:35.860Z,1007.6
2016-06-10T05:36:35.832Z,1007.59
2016-06-10T05:37:35.819Z,1007.57
2016-06-10T05:38:35.791Z,1007.6
2016-06-10T05:39:35.778Z,1007.55
2016-06-10T05:40:35.750Z,1007.58
2016-06-10T05:41:35.737Z,1007.56
2016-06-10T05:42:35.709Z,1007.55
2016-06-10T05:43:35.698Z,1007.53
2016-06-10T05:44:35.668Z,1007.52
2016-06-10T05:45:35.656Z,1007.51
2016-06-10T05:46:35.627Z,1007.55
2016-06-10T05:47:35.615Z,1007.55
2016-06-10T05:48:35.588Z,1007.53
2016-06-10T05:49:35.575Z,1007.51
2016-06-10T05:50:35.547Z,1007.5
2016-06-10T05:51:35.533Z,1007.51
2016-06-10T05:52:35.506Z,1007.48
2016-06-10T05:53:35.493Z,1007.56
2016-06-10T05:54:35.481Z,1007.45
2016-06-10T05:55:35.452Z,1007.41
2016-06-10T05:56:35.440Z,1007.53
2016-06-10T05:57:35.411Z,1007.53
2016-06-10T05:58:35.400Z,1007.49
2016-06-10T05:59:35.372Z,1007.53
2016-06-10T06:00:35.358Z,1007.51
2016-06-10T06:01:35.345Z,1007.49
2016-06-10T06:02:35.317Z,1007.57
2016-06-10T06:03:35.305Z,1007.55
2016-06-10T06:04:35.277Z,1007.57
2016-06-10T06:05:35.264Z,1007.55
2016-06-10T06:06:35.252Z,1007.61
2016-06-10T06:07:35.239Z,1007.6
2016-06-10T06:08:35.227Z,1007.67
2016-06-10T06:09:35.198Z,1007.68
2016-06-10T06:10:35.186Z,1007.74
2016-06-10T06:11:36.079Z,1007.71
2016-06-10T06:12:35.161Z,1007.66
2016-06-10T06:13:35.133Z,1007.64
2016-06-10T06:14:35.120Z,1007.61
2016-06-10T06:15:35.108Z,1007.68
2016-06-10T06:16:35.095Z,1007.63
2016-06-10T06:17:35.083Z,1007.59
2016-06-10T06:18:35.055Z,1007.64
2016-06-10T06:19:35.042Z,1007.61
2016-06-10T06:20:35.029Z,1007.69
2016-06-10T06:21:35.017Z,1007.66
2016-06-10T06:22:35.004Z,1007.68
2016-06-10T06:23:34.991Z,1007.69
2016-06-10T06:24:34.963Z,1007.76
2016-06-10T06:25:34.966Z,1007.73
2016-06-10T06:26:34.969Z,1007.77
2016-06-10T06:27:34.926Z,1007.79
2016-06-10T06:28:34.914Z,1007.85
2016-06-10T06:29:34.884Z,1007.88
2016-06-10T06:30:34.872Z,1007.88
2016-06-10T06:31:34.860Z,1007.8
2016-06-10T06:32:34.848Z,1007.76
2016-06-10T06:33:34.835Z,1007.75
2016-06-10T06:34:34.807Z,1007.79
2016-06-10T06:35:34.794Z,1007.76
2016-06-10T06:36:34.781Z,1007.69
2016-06-10T06:37:34.769Z,1007.67
2016-06-10T06:38:34.741Z,1007.73
2016-06-10T06:39:34.728Z,1007.65
2016-06-10T06:40:34.716Z,1007.65
2016-06-10T06:41:34.703Z,1007.75
2016-06-10T06:42:34.690Z,1007.59
2016-06-10T06:43:34.663Z,1007.53
2016-06-10T06:44:34.650Z,1007.51
2016-06-10T06:45:34.638Z,1007.51
2016-06-10T06:46:34.625Z,1007.46
2016-06-10T06:47:34.612Z,1007.55
2016-06-10T06:48:34.584Z,1007.44
2016-06-10T06:49:34.571Z,1007.45
2016-06-10T06:50:34.559Z,1007.48
2016-06-10T06:51:34.547Z,1007.49
2016-06-10T06:52:34.534Z,1007.41
2016-06-10T06:53:34.521Z,1007.35
2016-06-10T06:54:34.493Z,1007.5
2016-06-10T06:55:34.480Z,1007.43
2016-06-10T06:56:34.468Z,1007.37
2016-06-10T06:57:34.456Z,1007.38
2016-06-10T06:58:34.443Z,1007.41
2016-06-10T06:59:34.430Z,1007.37
2016-06-10T07:00:34.418Z,1007.41
2016-06-10T07:01:34.405Z,1007.32
2016-06-10T07:02:34.393Z,1007.37
2016-06-10T07:03:34.380Z,1007.31
2016-06-10T07:04:34.368Z,1007.29
2016-06-10T07:05:34.355Z,1007.28
2016-06-10T07:06:34.342Z,1007.29
2016-06-10T07:07:34.331Z,1007.34
2016-06-10T07:08:34.318Z,1007.3
2016-06-10T07:09:34.305Z,1007.34
2016-06-10T07:10:34.292Z,1007.31
2016-06-10T07:11:34.280Z,1007.34
2016-06-10T07:12:34.267Z,1007.36
2016-06-10T07:13:34.255Z,1007.36
2016-06-10T07:14:34.242Z,1007.36
2016-06-10T07:15:34.230Z,1007.39
2016-06-10T07:16:34.217Z,1007.41
2016-06-10T07:17:34.204Z,1007.4
2016-06-10T07:18:34.192Z,1007.48
2016-06-10T07:19:34.179Z,1007.37
2016-06-10T07:20:34.167Z,1007.45
2016-06-10T07:21:34.154Z,1007.4
2016-06-10T07:22:34.157Z,1007.38
2016-06-10T07:23:34.129Z,1007.37
2016-06-10T07:24:34.117Z,1007.36
2016-06-10T07:25:34.120Z,1007.4
2016-06-10T07:26:34.107Z,1007.36
2016-06-10T07:27:34.095Z,1007.45
2016-06-10T07:28:34.082Z,1007.43
2016-06-10T07:29:34.069Z,1007.43
2016-06-10T07:30:34.058Z,1007.42
2016-06-10T07:31:34.044Z,1007.43
2016-06-10T07:32:34.032Z,1007.46
2016-06-10T07:33:34.020Z,1007.51
2016-06-10T07:34:34.022Z,1007.47
2016-06-10T07:35:34.009Z,1007.49
2016-06-10T07:36:33.997Z,1007.43
2016-06-10T07:37:33.985Z,1007.43
2016-06-10T07:38:33.972Z,1007.47
2016-06-10T07:39:34.038Z,1007.49
2016-06-10T07:40:33.963Z,1007.43
2016-06-10T07:41:33.950Z,1007.41
2016-06-10T07:42:33.938Z,1007.42
2016-06-10T07:43:33.926Z,1007.48
2016-06-10T07:44:33.928Z,1007.46
2016-06-10T07:45:33.915Z,1007.47
2016-06-10T07:46:33.903Z,1007.5
2016-06-10T07:47:33.906Z,1007.45
2016-06-10T07:48:33.894Z,1007.48
2016-06-10T07:49:33.880Z,1007.51
2016-06-10T07:50:33.869Z,1007.49
2016-06-10T07:51:33.871Z,1007.5
2016-06-10T07:52:33.858Z,1007.44
2016-06-10T07:53:33.847Z,1007.47
2016-06-10T07:54:33.850Z,1007.5
2016-06-10T07:55:33.837Z,1007.4
2016-06-10T07:56:33.840Z,1007.38
2016-06-10T07:57:33.828Z,1007.37
2016-06-10T07:58:33.815Z,1007.34
2016-06-10T07:59:33.818Z,1007.35
2016-06-10T08:00:33.806Z,1007.36
2016-06-10T08:01:33.809Z,1007.41
2016-06-10T08:02:33.795Z,1007.38
2016-06-10T08:03:33.799Z,1007.36
2016-06-10T08:04:33.787Z,1007.38
2016-06-10T08:05:33.790Z,1007.32
2016-06-10T08:06:33.777Z,1007.37
2016-06-10T08:07:33.765Z,1007.35
2016-06-10T08:08:33.768Z,1007.36
2016-06-10T08:09:33.771Z,1007.34
2016-06-10T08:10:33.758Z,1007.32
2016-06-10T08:11:33.761Z,1007.32
2016-06-10T08:12:33.749Z,1007.3
2016-06-10T08:13:33.752Z,1007.31
2016-06-10T08:14:33.739Z,1007.33
2016-06-10T08:15:33.743Z,1007.33
2016-06-10T08:16:33.730Z,1007.31
2016-06-10T08:17:33.732Z,1007.29
2016-06-10T08:18:33.720Z,1007.34
2016-06-10T08:19:33.723Z,1007.29
2016-06-10T08:21:33.714Z,1007.3
2016-06-10T08:22:33.701Z,1007.33
2016-06-10T08:23:33.704Z,1007.32
2016-06-10T08:24:33.942Z,1007.3
2016-06-10T08:25:33.695Z,1007.35
2016-06-10T08:26:33.698Z,1007.29
2016-06-10T08:27:33.685Z,1007.3
2016-06-10T08:28:33.688Z,1007.3
2016-06-10T08:29:33.675Z,1007.3
2016-06-10T08:30:33.678Z,1007.35
2016-06-10T08:31:33.682Z,1007.37
2016-06-10T08:32:33.669Z,1007.36
2016-06-10T08:33:33.672Z,1007.37
2016-06-10T08:34:33.659Z,1007.32
2016-06-10T08:35:33.663Z,1007.32
2016-06-10T08:36:33.666Z,1007.3
2016-06-10T08:37:33.653Z,1007.27
2016-06-10T08:38:33.656Z,1007.29
2016-06-10T08:39:33.644Z,1007.33
2016-06-10T08:40:33.647Z,1007.38
2016-06-10T08:41:33.635Z,1007.32
2016-06-10T08:42:33.637Z,1007.38
2016-06-10T08:43:33.640Z,1007.4
2016-06-10T08:44:33.628Z,1007.43
2016-06-10T08:45:33.631Z,1007.49
2016-06-10T08:46:33.619Z,1007.44
2016-06-10T08:47:33.622Z,1007.41
2016-06-10T08:48:33.625Z,1007.37
2016-06-10T08:49:33.612Z,1007.42
2016-06-10T08:50:33.615Z,1007.42
2016-06-10T08:51:33.603Z,1007.44
2016-06-10T08:52:33.606Z,1007.43
2016-06-10T08:53:33.593Z,1007.44
2016-06-10T08:54:33.597Z,1007.44
2016-06-10T08:55:33.600Z,1007.46
2016-06-10T08:56:33.586Z,1007.44
2016-06-10T08:57:33.590Z,1007.42
2016-06-10T08:58:33.578Z,1007.29
2016-06-10T08:59:33.581Z,1007.26
2016-06-10T09:00:33.568Z,1007.24
2016-06-10T09:01:33.556Z,1007.24
2016-06-10T09:02:33.559Z,1007.17
2016-06-10T09:03:33.562Z,1007.16
2016-06-10T09:04:33.549Z,1007.15
2016-06-10T09:05:33.537Z,1007.12
2016-06-10T09:06:33.540Z,1007.13
2016-06-10T09:07:33.527Z,1007.18
2016-06-10T09:08:33.530Z,1007.18
2016-06-10T09:09:33.517Z,1007.18
2016-06-10T09:10:33.520Z,1007.16
2016-06-10T09:11:33.820Z,1007.13
2016-06-10T09:12:33.495Z,1007.17
2016-06-10T09:13:33.483Z,1007.14
2016-06-10T09:14:33.486Z,1007.16
2016-06-10T09:15:33.473Z,1007.18
2016-06-10T09:16:33.461Z,1007.16
2016-06-10T09:17:33.448Z,1007.14
2016-06-10T09:18:33.451Z,1007.08
2016-06-10T09:19:33.439Z,1007.11
2016-06-10T09:20:33.426Z,1007.14
2016-06-10T09:21:33.413Z,1007.14
2016-06-10T09:22:33.401Z,1007.12
2016-06-10T09:23:33.389Z,1007.16
2016-06-10T09:24:33.377Z,1007.09
2016-06-10T09:25:33.364Z,1007.1
2016-06-10T09:26:33.351Z,1007.08
2016-06-10T09:27:33.511Z,1007.07
2016-06-10T09:28:33.325Z,1007.14
2016-06-10T09:29:33.313Z,1007.16
2016-06-10T09:30:33.301Z,1007.13
2016-06-10T09:31:33.288Z,1007.07
2016-06-10T09:32:33.277Z,1007.05
2016-06-10T09:33:33.263Z,1007.01
2016-06-10T09:34:33.250Z,1006.98
2016-06-10T09:35:33.238Z,1006.99
2016-06-10T09:36:33.225Z,1006.95
2016-06-10T09:37:33.212Z,1007.01
2016-06-10T09:38:33.200Z,1007.01
2016-06-10T09:39:33.188Z,1006.97
2016-06-10T09:40:33.176Z,1007.01
2016-06-10T09:41:33.163Z,1007.05
2016-06-10T09:42:33.135Z,1007.03
2016-06-10T09:43:33.122Z,1007.07
2016-06-10T09:44:33.109Z,1007.01
2016-06-10T09:45:33.112Z,1007.05
2016-06-10T09:46:33.084Z,1006.99
2016-06-10T09:47:33.072Z,1006.99
2016-06-10T09:48:33.060Z,1007.03
2016-06-10T09:49:33.047Z,1007.01
2016-06-10T09:50:33.034Z,1007.04
2016-06-10T09:51:33.022Z,1007.04
2016-06-10T09:52:33.009Z,1007.01
2016-06-10T09:53:32.997Z,1006.93
2016-06-10T09:54:32.981Z,1006.93
2016-06-10T09:55:32.969Z,1006.87
2016-06-10T09:56:32.940Z,1006.89
2016-06-10T09:57:32.928Z,1006.86
2016-06-10T09:58:32.915Z,1006.89
2016-06-10T09:59:32.902Z,1006.89
2016-06-10T10:00:32.890Z,1006.92
2016-06-10T10:01:32.877Z,1006.93
2016-06-10T10:02:32.865Z,1006.94
2016-06-10T10:03:32.852Z,1006.97
2016-06-10T10:04:32.840Z,1006.97
2016-06-10T10:05:32.828Z,1006.97
2016-06-10T10:06:32.815Z,1006.97
2016-06-10T10:07:32.802Z,1007
2016-06-10T10:08:32.790Z,1006.96
2016-06-10T10:09:32.777Z,1006.99
2016-06-10T10:10:32.749Z,1006.96
2016-06-10T10:11:32.752Z,1006.96
2016-06-10T10:12:32.724Z,1006.93
2016-06-10T10:13:32.711Z,1006.94
2016-06-10T10:14:32.698Z,1006.92
2016-06-10T10:15:32.686Z,1006.91
2016-06-10T10:16:32.674Z,1006.86
2016-06-10T10:17:32.661Z,1006.93
2016-06-10T10:18:32.648Z,1007.01
2016-06-10T10:19:32.635Z,1007
2016-06-10T10:20:32.624Z,1006.96
2016-06-10T10:21:32.595Z,1006.95
2016-06-10T10:22:32.582Z,1006.94
2016-06-10T10:23:32.570Z,1006.94
2016-06-10T10:24:32.558Z,1006.9
2016-06-10T10:25:32.545Z,1006.88
2016-06-10T10:26:32.532Z,1006.92
2016-06-10T10:27:32.785Z,1006.85
2016-06-10T10:28:32.491Z,1006.84
2016-06-10T10:29:32.479Z,1006.87
2016-06-10T10:30:32.466Z,1006.83
2016-06-10T10:31:32.454Z,1006.86
2016-06-10T10:32:32.425Z,1006.82
2016-06-10T10:33:32.413Z,1006.8
2016-06-10T10:34:32.401Z,1006.84
2016-06-10T10:35:32.388Z,1006.84
2016-06-10T10:36:32.376Z,1006.85
2016-06-10T10:37:32.363Z,1006.81
2016-06-10T10:38:32.335Z,1006.78
2016-06-10T10:39:32.322Z,1006.81
2016-06-10T10:40:32.310Z,1006.85
2016-06-10T10:41:32.298Z,1006.78
2016-06-10T10:42:32.770Z,1006.76
2016-06-10T10:43:32.257Z,1006.78
2016-06-10T10:44:32.244Z,1006.75
2016-06-10T10:45:32.232Z,1006.75
2016-06-10T10:46:32.219Z,1006.74
2016-06-10T10:47:32.206Z,1006.74
2016-06-10T10:48:32.177Z,1006.71
2016-06-10T10:49:32.165Z,1006.67
2016-06-10T10:50:32.153Z,1006.66
2016-06-10T10:51:32.125Z,1006.68
2016-06-10T10:52:32.112Z,1006.67
2016-06-10T10:53:32.100Z,1006.66
2016-06-10T10:54:32.071Z,1006.67
2016-06-10T10:55:32.059Z,1006.64
2016-06-10T10:56:32.047Z,1006.61
2016-06-10T10:57:32.035Z,1006.59
2016-06-10T10:58:32.022Z,1006.63
2016-06-10T10:59:32.009Z,1006.61
2016-06-10T11:00:31.980Z,1006.62
2016-06-10T11:01:31.967Z,1006.65
2016-06-10T11:02:31.955Z,1006.6
2016-06-10T11:03:31.928Z,1006.6
2016-06-10T11:04:31.915Z,1006.58
2016-06-10T11:05:31.902Z,1006.61
2016-06-10T11:06:31.890Z,1006.59
2016-06-10T11:07:31.877Z,1006.59
2016-06-10T11:08:31.849Z,1006.61
2016-06-10T11:09:31.836Z,1006.56
2016-06-10T11:10:31.824Z,1006.59
2016-06-10T11:11:31.812Z,1006.56
2016-06-10T11:12:31.798Z,1006.57
2016-06-10T11:13:31.771Z,1006.59
2016-06-10T11:14:31.757Z,1006.63
2016-06-10T11:15:31.745Z,1006.62
2016-06-10T11:16:31.718Z,1006.64
2016-06-10T11:17:31.705Z,1006.66
2016-06-10T11:18:31.692Z,1006.61
2016-06-10T11:19:31.680Z,1006.64
2016-06-10T11:20:31.667Z,1006.62
2016-06-10T11:21:31.655Z,1006.62
2016-06-10T11:22:31.627Z,1006.59
2016-06-10T11:23:31.614Z,1006.6
2016-06-10T11:24:31.633Z,1006.51
2016-06-10T11:25:31.573Z,1006.55
2016-06-10T11:26:31.577Z,1006.53
2016-06-10T11:27:31.548Z,1006.48
2016-06-10T11:28:31.739Z,1006.51
2016-06-10T11:29:31.523Z,1006.5
2016-06-10T11:30:31.494Z,1006.51
2016-06-10T11:31:31.498Z,1006.5
2016-06-10T11:32:31.470Z,1006.51
2016-06-10T11:33:31.457Z,1006.52
2016-06-10T11:34:31.444Z,1006.53
2016-06-10T11:35:31.416Z,1006.52
2016-06-10T11:36:31.404Z,1006.48
2016-06-10T11:37:31.391Z,1006.45
2016-06-10T11:38:31.378Z,1006.4
2016-06-10T11:39:31.367Z,1006.43
2016-06-10T11:40:31.354Z,1006.41
2016-06-10T11:41:31.340Z,1006.42
2016-06-10T11:42:31.312Z,1006.4
2016-06-10T11:43:31.301Z,1006.32
2016-06-10T11:44:31.303Z,1006.33
2016-06-10T11:45:31.329Z,1006.31
2016-06-10T11:46:31.340Z,1006.29
2016-06-10T11:47:31.367Z,1006.32
2016-06-10T11:48:31.394Z,1006.31
2016-06-10T11:49:31.410Z,1006.3
2016-06-10T11:50:31.413Z,1006.31
2016-06-10T11:51:31.414Z,1006.29
2016-06-10T11:52:31.401Z,1006.27
2016-06-10T11:53:31.402Z,1006.31
2016-06-10T11:54:31.399Z,1006.31
2016-06-10T11:55:31.392Z,1006.31
2016-06-10T11:56:31.384Z,1006.29
2016-06-10T11:57:31.362Z,1006.25
2016-06-10T11:58:31.964Z,1006.24
2016-06-10T11:59:31.346Z,1006.2
2016-06-10T12:00:31.334Z,1006.23
2016-06-10T12:01:31.323Z,1006.18
2016-06-10T12:02:31.298Z,1006.18
2016-06-10T12:03:31.288Z,1006.21
2016-06-10T12:04:31.276Z,1006.17
2016-06-10T12:05:31.263Z,1006.15
2016-06-10T12:06:31.236Z,1006.11
2016-06-10T12:07:31.223Z,1006.12
2016-06-10T12:08:31.212Z,1006.11
2016-06-10T12:09:31.199Z,1006.11